Time;durP1;ratioP1;P1;durP2;ratioP2;P2;SDS_P1;SDS_P2;PMS_P1;PMS_P2;Temp;Humidity;BMP_temperature;BMP_pressure;BME280_temperature;BME280_humidity;BME280_pressure;Samples;Min_cycle;Max_cycle;Signal;HPM_P1;HPM_P2
2023/08/27 00:01:59;;;;;;;4.53;4.13;;;;;;;13.41;100.00;100809.50;5047841;28;20029;-77
2023/08/27 00:04:25;;;;;;;4.25;3.72;;;;;;;13.37;100.00;100807.41;5057276;28;20365;-77
2023/08/27 00:06:59;;;;;;;4.45;3.70;;;;;;;13.27;100.00;100807.88;5060167;28;20074;-77
2023/08/27 00:09:24;;;;;;;3.72;3.40;;;;;;;13.19;100.00;100806.25;5051170;28;20041;-76
2023/08/27 00:11:50;;;;;;;3.38;3.08;;;;;;;13.15;100.00;100797.75;5053168;28;20029;-77
2023/08/27 00:14:15;;;;;;;3.55;3.25;;;;;;;13.09;100.00;100795.91;5050262;28;20477;-77
2023/08/27 00:16:41;;;;;;;6.10;3.25;;;;;;;13.01;100.00;100788.88;5059175;28;20028;-76
2023/08/27 00:19:07;;;;;;;3.70;3.40;;;;;;;12.93;100.00;100781.03;5053539;28;20032;-77
2023/08/27 00:21:35;;;;;;;3.63;3.33;;;;;;;12.84;100.00;100783.13;5050790;28;20033;-76
2023/08/27 00:24:00;;;;;;;6.35;5.20;;;;;;;12.83;100.00;100786.88;5049318;28;20090;-76
2023/08/27 00:26:28;;;;;;;5.85;4.72;;;;;;;12.75;100.00;100784.41;5060401;28;21222;-77
2023/08/27 00:28:55;;;;;;;4.00;3.60;;;;;;;12.71;100.00;100796.66;5050535;28;20037;-76
2023/08/27 00:31:21;;;;;;;4.15;3.38;;;;;;;12.70;100.00;100787.75;5050572;28;20029;-76
2023/08/27 00:33:46;;;;;;;3.58;3.15;;;;;;;12.73;100.00;100781.06;5050763;28;20033;-77
2023/08/27 00:36:11;;;;;;;5.68;3.40;;;;;;;12.74;100.00;100783.56;5055577;28;20029;-76
2023/08/27 00:38:37;;;;;;;5.45;3.50;;;;;;;12.76;100.00;100782.53;5051898;28;20420;-77
2023/08/27 00:41:02;;;;;;;3.40;3.10;;;;;;;12.75;100.00;100781.69;5051400;28;20032;-76
2023/08/27 00:43:28;;;;;;;3.30;3.10;;;;;;;12.77;100.00;100782.31;5050816;28;20052;-76
2023/08/27 00:45:53;;;;;;;3.13;2.83;;;;;;;12.72;100.00;100777.56;5061373;28;20514;-77
2023/08/27 00:48:19;;;;;;;3.80;3.03;;;;;;;12.64;100.00;100771.56;5037166;28;20032;-77
2023/08/27 00:50:44;;;;;;;3.30;3.00;;;;;;;12.59;100.00;100767.63;5051698;28;20028;-77
2023/08/27 00:53:10;;;;;;;3.35;3.05;;;;;;;12.53;100.00;100776.56;5018843;28;20029;-76
2023/08/27 00:55:35;;;;;;;2.83;2.58;;;;;;;12.52;100.00;100756.03;5025319;28;20548;-77
2023/08/27 00:58:01;;;;;;;2.90;2.70;;;;;;;12.43;100.00;100759.97;5047300;28;20079;-77
2023/08/27 01:00:26;;;;;;;3.85;2.53;;;;;;;12.34;100.00;100750.47;5042399;28;20037;-77
2023/08/27 01:02:52;;;;;;;3.75;2.90;;;;;;;12.28;100.00;100760.22;5033888;28;20033;-76
2023/08/27 01:05:20;;;;;;;4.15;3.00;;;;;;;12.24;100.00;100740.91;5053034;28;20043;-76
2023/08/27 01:08:24;;;;;;;3.00;2.70;;;;;;;12.20;100.00;100736.97;5053624;28;20035;-76
2023/08/27 01:10:52;;;;;;;3.42;3.08;;;;;;;12.12;100.00;100731.81;5054967;28;20040;-76
2023/08/27 01:13:28;;;;;;;3.28;2.97;;;;;;;12.09;100.00;100729.53;5060933;28;20083;-76
2023/08/27 01:15:57;;;;;;;3.43;3.13;;;;;;;12.04;100.00;100734.72;5060302;28;20027;-76
2023/08/27 01:18:22;;;;;;;3.13;2.85;;;;;;;11.97;100.00;100732.84;5027749;28;20394;-77
2023/08/27 01:20:48;;;;;;;3.33;3.10;;;;;;;11.92;100.00;100721.84;5051545;28;20021;-76
2023/08/27 01:23:16;;;;;;;4.47;3.60;;;;;;;11.93;100.00;100720.81;5049971;28;20025;-77
2023/08/27 01:25:46;;;;;;;3.70;3.40;;;;;;;11.88;100.00;100715.19;5051012;28;20091;-76
2023/08/27 01:28:19;;;;;;;4.35;3.90;;;;;;;11.85;100.00;100715.63;5052107;28;20025;-76
2023/08/27 01:30:51;;;;;;;4.55;4.15;;;;;;;11.85;100.00;100714.81;5043127;28;20025;-77
2023/08/27 01:33:20;;;;;;;5.07;4.00;;;;;;;11.81;100.00;100719.78;5066244;28;20044;-76
2023/08/27 01:35:51;;;;;;;3.88;3.55;;;;;;;11.76;100.00;100719.56;5049760;28;20058;-77
2023/08/27 01:38:18;;;;;;;4.45;4.05;;;;;;;11.77;100.00;100719.34;5032872;28;20090;-76
2023/08/27 01:40:44;;;;;;;4.40;4.00;;;;;;;11.78;100.00;100718.31;5043514;28;20040;-75
2023/08/27 01:43:10;;;;;;;4.63;4.20;;;;;;;11.81;100.00;100725.19;5050702;28;20033;-76
2023/08/27 01:45:35;;;;;;;5.38;4.20;;;;;;;11.92;100.00;100723.69;5052082;28;20047;-76
2023/08/27 01:48:01;;;;;;;4.30;3.90;;;;;;;12.12;100.00;100711.03;5052738;28;20025;-76
2023/08/27 01:50:26;;;;;;;4.22;3.83;;;;;;;12.26;100.00;100717.25;5052938;28;20102;-76
2023/08/27 01:52:51;;;;;;;4.20;3.80;;;;;;;12.47;100.00;100709.06;5048339;28;20025;-76
2023/08/27 01:55:17;;;;;;;3.85;3.30;;;;;;;12.59;100.00;100710.91;5050540;28;20029;-76
2023/08/27 01:57:42;;;;;;;4.97;3.67;;;;;;;12.79;100.00;100722.69;5050199;28;20543;-76
2023/08/27 02:00:09;;;;;;;4.20;3.80;;;;;;;12.90;100.00;100727.41;5053687;28;20016;-76
2023/08/27 02:02:37;;;;;;;4.28;3.90;;;;;;;12.95;100.00;100729.44;5053175;28;20033;-76
2023/08/27 02:05:04;;;;;;;4.35;3.97;;;;;;;12.96;100.00;100740.06;5050627;28;20485;-76
2023/08/27 02:07:30;;;;;;;4.40;4.00;;;;;;;12.86;100.00;100732.41;5053289;28;20448;-76
2023/08/27 02:09:56;;;;;;;4.30;3.75;;;;;;;12.89;100.00;100726.56;5055198;28;20493;-76
2023/08/27 02:12:21;;;;;;;4.30;3.90;;;;;;;12.84;100.00;100720.16;5055245;28;20091;-76
2023/08/27 02:14:47;;;;;;;5.45;4.10;;;;;;;12.91;100.00;100723.66;5053870;28;20104;-76
2023/08/27 02:17:13;;;;;;;5.55;4.35;;;;;;;12.93;100.00;100720.72;5053810;28;20458;-76
2023/08/27 02:19:38;;;;;;;5.70;4.80;;;;;;;12.96;100.00;100718.44;5053696;28;20029;-76
2023/08/27 02:22:03;;;;;;;5.55;4.60;;;;;;;13.04;100.00;100701.16;5051281;28;20765;-75
2023/08/27 02:24:29;;;;;;;4.60;4.20;;;;;;;13.19;100.00;100707.06;5052909;28;20021;-75
2023/08/27 02:26:54;;;;;;;4.70;4.20;;;;;;;13.28;100.00;100701.38;5059494;28;20028;-76
2023/08/27 02:29:20;;;;;;;5.18;4.30;;;;;;;13.21;100.00;100696.03;5052699;28;20041;-76
2023/08/27 02:31:45;;;;;;;5.30;4.35;;;;;;;13.27;100.00;100688.91;5052832;28;20021;-75
2023/08/27 02:34:10;;;;;;;4.72;4.28;;;;;;;13.35;100.00;100686.78;5054266;28;20025;-75
2023/08/27 02:36:36;;;;;;;6.65;4.68;;;;;;;13.32;100.00;100691.81;5055873;28;20021;-75
2023/08/27 02:39:01;;;;;;;5.50;4.88;;;;;;;13.22;100.00;100677.97;5052996;28;20044;-76
2023/08/27 02:41:27;;;;;;;5.78;5.22;;;;;;;13.19;100.00;100671.94;5053658;28;20044;-76
2023/08/27 02:43:52;;;;;;;6.43;4.57;;;;;;;13.28;100.00;100668.94;5052132;28;20443;-76
2023/08/27 02:46:17;;;;;;;5.25;4.82;;;;;;;13.28;100.00;100666.25;5052484;28;20041;-76
2023/08/27 02:48:43;;;;;;;5.25;4.75;;;;;;;13.28;100.00;100667.09;5058480;28;20037;-76
2023/08/27 02:51:08;;;;;;;5.47;4.97;;;;;;;13.32;100.00;100671.00;5050445;28;20032;-76
2023/08/27 02:53:34;;;;;;;5.38;4.88;;;;;;;13.34;100.00;100657.25;5051701;28;20021;-76
2023/08/27 02:55:59;;;;;;;7.15;5.10;;;;;;;13.30;100.00;100656.03;5059280;28;20029;-76
2023/08/27 02:58:24;;;;;;;5.93;5.38;;;;;;;13.26;100.00;100647.56;5052421;28;20111;-76
2023/08/27 03:00:50;;;;;;;5.95;5.20;;;;;;;13.28;100.00;100658.13;5051327;28;20025;-76
2023/08/27 03:03:15;;;;;;;7.38;5.47;;;;;;;13.31;100.00;100652.28;5050293;28;20032;-76
2023/08/27 03:05:41;;;;;;;7.35;5.85;;;;;;;13.25;100.00;100642.34;5058682;28;20055;-75
2023/08/27 03:08:06;;;;;;;6.85;6.20;;;;;;;13.17;100.00;100646.16;5053129;28;20071;-77
2023/08/27 03:10:31;;;;;;;7.57;6.10;;;;;;;13.13;100.00;100653.88;5052688;28;20119;-76
2023/08/27 03:12:57;;;;;;;8.60;5.82;;;;;;;13.16;100.00;100655.31;5052163;28;20028;-76
2023/08/27 03:15:22;;;;;;;8.15;5.72;;;;;;;13.14;100.00;100646.63;5053289;28;20032;-76
2023/08/27 03:17:50;;;;;;;8.63;6.45;;;;;;;13.11;100.00;100652.47;5051714;28;20021;-76
2023/08/27 03:20:16;;;;;;;7.65;6.03;;;;;;;13.06;100.00;100650.38;5057103;28;20040;-76
2023/08/27 03:22:41;;;;;;;8.93;6.95;;;;;;;13.03;100.00;100650.84;5052497;28;20029;-76
2023/08/27 03:25:07;;;;;;;6.75;6.05;;;;;;;13.04;100.00;100652.50;5053210;28;20475;-76
2023/08/27 03:27:35;;;;;;;6.70;6.00;;;;;;;13.01;100.00;100645.66;5051716;28;20083;-76
2023/08/27 03:30:02;;;;;;;7.07;6.13;;;;;;;12.93;100.00;100650.47;5062915;28;20078;-76
2023/08/27 03:32:28;;;;;;;10.30;6.93;;;;;;;12.86;100.00;100648.66;5052865;28;20021;-75
2023/08/27 03:34:53;;;;;;;7.18;6.43;;;;;;;12.76;100.00;100650.19;5051930;28;20078;-76
2023/08/27 03:37:18;;;;;;;7.30;6.57;;;;;;;12.74;100.00;100656.63;5051697;28;20043;-76
2023/08/27 03:39:44;;;;;;;8.07;7.00;;;;;;;12.51;100.00;100654.47;5061246;28;20037;-75
2023/08/27 03:42:09;;;;;;;11.00;8.05;;;;;;;12.41;100.00;100662.16;5053523;28;20701;-76
2023/08/27 03:44:36;;;;;;;9.00;7.68;;;;;;;12.35;100.00;100660.34;5051852;28;20037;-76
2023/08/27 03:47:02;;;;;;;11.45;8.05;;;;;;;12.29;100.00;100664.69;5053449;28;20473;-76
2023/08/27 03:49:28;;;;;;;13.05;8.25;;;;;;;12.30;100.00;100663.66;5050584;28;20455;-76
2023/08/27 03:51:53;;;;;;;9.95;7.25;;;;;;;12.35;100.00;100657.66;5051838;28;20021;-75
2023/08/27 03:54:21;;;;;;;9.05;7.35;;;;;;;12.29;100.00;100662.00;5051189;28;20045;-76
2023/08/27 03:56:47;;;;;;;8.18;7.18;;;;;;;12.41;100.00;100664.88;5052595;28;20028;-76
2023/08/27 03:59:12;;;;;;;8.43;7.57;;;;;;;12.46;100.00;100672.31;5051667;28;20037;-76
2023/08/27 04:01:37;;;;;;;9.02;7.53;;;;;;;12.42;100.00;100655.72;5053672;28;20033;-75
2023/08/27 04:04:03;;;;;;;8.73;7.82;;;;;;;12.25;100.00;100664.31;5053099;28;20035;-77
2023/08/27 04:06:31;;;;;;;8.77;7.88;;;;;;;12.26;100.00;100663.28;5051191;28;20100;-76
2023/08/27 04:08:57;;;;;;;9.52;8.27;;;;;;;12.35;100.00;100666.56;5061460;28;20021;-77
2023/08/27 04:11:23;;;;;;;10.90;7.85;;;;;;;12.50;100.00;100676.25;5062855;28;20044;-76
2023/08/27 04:13:49;;;;;;;9.65;7.63;;;;;;;12.58;100.00;100676.84;5061018;28;20056;-76
2023/08/27 04:16:17;;;;;;;8.68;7.68;;;;;;;12.65;100.00;100686.81;5058385;28;20048;-76
2023/08/27 04:18:43;;;;;;;10.68;7.82;;;;;;;12.57;100.00;100688.69;5045162;28;20039;-77
2023/08/27 04:21:09;;;;;;;8.55;7.72;;;;;;;12.59;100.00;100681.22;5054528;28;20064;-77
2023/08/27 04:23:34;;;;;;;8.07;7.28;;;;;;;12.59;100.00;100683.91;5051416;28;20036;-76
2023/08/27 04:25:59;;;;;;;7.95;7.15;;;;;;;12.75;100.00;100687.16;5051182;28;20021;-76
2023/08/27 04:28:25;;;;;;;8.23;7.05;;;;;;;12.86;100.00;100697.28;5048696;28;20495;-77
2023/08/27 04:30:50;;;;;;;7.80;7.00;;;;;;;12.92;100.00;100713.66;5051173;28;20033;-77
2023/08/27 04:33:16;;;;;;;8.75;7.32;;;;;;;12.98;100.00;100707.41;5051492;28;20025;-77
2023/08/27 04:35:44;;;;;;;9.50;6.90;;;;;;;12.97;100.00;100711.16;5050771;28;20036;-77
2023/08/27 04:38:10;;;;;;;7.80;7.10;;;;;;;12.88;100.00;100692.47;5051059;28;20120;-77
2023/08/27 04:40:36;;;;;;;8.65;7.57;;;;;;;12.84;100.00;100693.97;5050605;28;20029;-77
2023/08/27 04:43:01;;;;;;;8.73;7.10;;;;;;;12.92;100.00;100702.84;5054907;28;20045;-77
2023/08/27 04:45:27;;;;;;;8.15;7.05;;;;;;;12.94;100.00;100708.88;5049834;28;20535;-76
2023/08/27 04:47:52;;;;;;;7.65;6.93;;;;;;;13.06;100.00;100714.44;5051619;28;20036;-77
2023/08/27 04:50:17;;;;;;;6.95;6.30;;;;;;;13.09;100.00;100714.00;5050930;28;20041;-77
2023/08/27 04:52:43;;;;;;;7.35;6.38;;;;;;;13.11;100.00;100715.44;5050029;28;20031;-77
2023/08/27 04:55:09;;;;;;;7.22;6.30;;;;;;;13.15;100.00;100713.97;5054884;28;20496;-76
2023/08/27 04:57:35;;;;;;;6.50;5.90;;;;;;;13.17;100.00;100716.44;5052107;28;20025;-75
2023/08/27 05:00:08;;;;;;;6.38;5.78;;;;;;;13.11;100.00;100722.72;5051342;28;20024;-76
2023/08/27 05:02:34;;;;;;;5.97;5.47;;;;;;;13.08;100.00;100717.75;5051460;28;20076;-76
2023/08/27 05:05:02;;;;;;;6.40;5.63;;;;;;;13.14;100.00;100733.91;5050272;28;20472;-75
2023/08/27 05:07:28;;;;;;;6.22;4.32;;;;;;;13.21;100.00;100724.94;5051440;28;20059;-76
2023/08/27 05:09:55;;;;;;;4.40;4.00;;;;;;;13.31;100.00;100728.84;5049647;28;20056;-76
2023/08/27 05:12:20;;;;;;;6.50;4.30;;;;;;;13.24;100.00;100736.16;5048675;28;20025;-76
2023/08/27 05:14:46;;;;;;;5.18;4.25;;;;;;;13.20;100.00;100748.44;5055591;28;20028;-75
2023/08/27 05:17:11;;;;;;;6.85;3.97;;;;;;;13.15;100.00;100738.28;5054936;28;20509;-75
2023/08/27 05:19:36;;;;;;;5.30;3.70;;;;;;;13.10;100.00;100729.16;5050513;28;20095;-75
2023/08/27 05:22:02;;;;;;;3.55;3.25;;;;;;;13.01;100.00;100713.19;5051047;28;20021;-75
2023/08/27 05:24:27;;;;;;;3.50;3.20;;;;;;;12.99;100.00;100714.47;5048526;28;20374;-75
2023/08/27 05:26:56;;;;;;;3.58;3.28;;;;;;;12.96;100.00;100698.69;5050039;28;20033;-75
2023/08/27 05:29:22;;;;;;;4.13;3.22;;;;;;;12.93;100.00;100709.91;5049098;28;20036;-76
2023/08/27 05:31:48;;;;;;;4.22;3.53;;;;;;;12.92;100.00;100703.69;5051063;28;20032;-76
2023/08/27 05:34:14;;;;;;;4.43;3.53;;;;;;;12.93;100.00;100713.47;5057953;28;20044;-75
2023/08/27 05:36:42;;;;;;;6.57;4.07;;;;;;;12.95;100.00;100724.03;5050536;28;20017;-75
2023/08/27 05:39:08;;;;;;;5.28;4.05;;;;;;;12.92;100.00;100730.72;5050963;28;20535;-76
2023/08/27 05:41:33;;;;;;;4.18;3.58;;;;;;;12.93;100.00;100747.75;5054462;28;20059;-76
2023/08/27 05:44:02;;;;;;;5.35;3.53;;;;;;;12.93;100.00;100754.00;5053590;28;20036;-78
2023/08/27 05:46:27;;;;;;;4.72;3.63;;;;;;;12.79;100.00;100753.22;5053809;28;20037;-76
2023/08/27 05:48:52;;;;;;;5.03;3.97;;;;;;;12.74;100.00;100753.88;5064723;28;20499;-77
2023/08/27 05:51:18;;;;;;;4.40;3.33;;;;;;;12.88;100.00;100734.91;5053605;28;20033;-77
2023/08/27 05:53:46;;;;;;;5.45;4.07;;;;;;;12.86;100.00;100732.41;5056758;28;20051;-79
2023/08/27 05:56:11;;;;;;;5.00;3.90;;;;;;;12.78;100.00;100716.44;5059116;28;20095;-78
2023/08/27 05:58:37;;;;;;;3.35;3.00;;;;;;;12.80;100.00;100711.66;5053342;28;20039;-79
2023/08/27 06:01:02;;;;;;;6.63;3.55;;;;;;;12.78;100.00;100702.94;5053718;28;20108;-79
2023/08/27 06:03:30;;;;;;;4.20;3.17;;;;;;;12.71;100.00;100688.63;5055669;28;20096;-79
2023/08/27 06:05:56;;;;;;;6.20;3.20;;;;;;;12.72;100.00;100687.56;5058134;28;20056;-79
2023/08/27 06:08:21;;;;;;;4.55;3.30;;;;;;;12.70;100.00;100681.59;5054994;28;20044;-82
2023/08/27 06:10:47;;;;;;;5.30;3.10;;;;;;;12.74;100.00;100682.78;5054678;28;20024;-82
2023/08/27 06:13:12;;;;;;;4.50;2.90;;;;;;;12.84;100.00;100685.03;5056600;28;20343;-80
2023/08/27 06:15:38;;;;;;;3.00;2.70;;;;;;;13.01;100.00;100683.47;5066432;22;20082;-80
2023/08/27 06:18:04;;;;;;;2.75;2.45;;;;;;;13.21;100.00;100677.13;5080289;28;20028;-79
2023/08/27 06:20:30;;;;;;;5.05;3.13;;;;;;;13.35;100.00;100680.56;5077570;28;20024;-79
2023/08/27 06:22:55;;;;;;;3.33;2.70;;;;;;;13.49;100.00;100692.94;5086727;28;20103;-77
2023/08/27 06:25:22;;;;;;;2.50;2.10;;;;;;;13.73;100.00;100682.34;5074182;28;20533;-75
2023/08/27 06:27:52;;;;;;;3.83;2.13;;;;;;;14.00;100.00;100687.50;5072586;28;20032;-74
2023/08/27 06:30:18;;;;;;;3.13;2.05;;;;;;;14.18;100.00;100680.44;5081454;28;20058;-76
2023/08/27 06:32:43;;;;;;;3.55;2.15;;;;;;;14.39;100.00;100679.16;5077755;28;20024;-78
2023/08/27 06:35:09;;;;;;;2.25;2.00;;;;;;;15.63;99.30;100681.59;5077260;28;20029;-78
2023/08/27 06:37:34;;;;;;;1.83;1.60;;;;;;;17.06;86.04;100682.16;5087350;28;20032;-78
2023/08/27 06:40:00;;;;;;;2.20;1.30;;;;;;;17.22;82.66;100675.09;5091283;28;20541;-74
2023/08/27 06:42:25;;;;;;;3.22;1.80;;;;;;;17.55;81.39;100690.63;5074736;28;20028;-75
2023/08/27 06:44:53;;;;;;;2.45;1.45;;;;;;;17.79;78.65;100684.16;5079175;28;20438;-76
2023/08/27 06:47:19;;;;;;;1.80;1.40;;;;;;;18.02;76.41;100685.88;5086579;28;20024;-79
2023/08/27 06:49:44;;;;;;;3.15;1.50;;;;;;;17.84;76.15;100686.94;5078817;28;20028;-75
2023/08/27 06:52:10;;;;;;;2.45;1.67;;;;;;;17.56;78.90;100688.72;5084884;28;20029;-76
2023/08/27 06:54:35;;;;;;;2.40;1.63;;;;;;;18.27;76.13;100685.41;5081486;28;20024;-76
2023/08/27 06:57:01;;;;;;;2.38;1.50;;;;;;;18.24;76.10;100680.44;5088450;28;20096;-76
2023/08/27 06:59:26;;;;;;;2.58;1.80;;;;;;;17.87;77.70;100673.66;5080831;28;20024;-76
2023/08/27 07:01:51;;;;;;;2.95;1.70;;;;;;;17.88;77.25;100664.44;5085956;28;20024;-76
2023/08/27 07:04:17;;;;;;;1.80;1.70;;;;;;;18.52;74.21;100670.44;5084666;28;20024;-76
2023/08/27 07:06:43;;;;;;;1.92;1.77;;;;;;;19.19;72.04;100679.34;5073781;28;20028;-77
2023/08/27 07:09:08;;;;;;;4.18;2.17;;;;;;;19.56;71.51;100685.09;5075474;28;20457;-76
2023/08/27 07:11:33;;;;;;;1.92;1.83;;;;;;;21.19;65.00;100685.25;5081415;28;20382;-76
2023/08/27 07:13:59;;;;;;;1.70;1.60;;;;;;;21.87;61.23;100684.19;5076837;28;20376;-75
2023/08/27 07:16:26;;;;;;;2.13;1.65;;;;;;;23.17;56.70;100687.16;5076821;28;20056;-76
2023/08/27 07:18:52;;;;;;;2.95;1.80;;;;;;;23.09;55.46;100690.47;5080613;28;20031;-76
2023/08/27 07:21:17;;;;;;;2.03;1.70;;;;;;;23.63;53.34;100699.72;5073273;28;20029;-76
2023/08/27 07:23:44;;;;;;;1.80;1.70;;;;;;;23.79;52.99;100703.09;5073477;28;20029;-76
2023/08/27 07:26:12;;;;;;;1.92;1.83;;;;;;;22.48;57.17;100709.75;5076605;28;20024;-75
2023/08/27 07:28:38;;;;;;;1.80;1.70;;;;;;;22.74;56.41;100706.06;5083516;28;20422;-76
2023/08/27 07:31:03;;;;;;;2.10;1.90;;;;;;;23.30;54.37;100707.66;5083791;22;20055;-76
2023/08/27 07:33:29;;;;;;;2.30;1.70;;;;;;;22.97;56.32;100707.31;5065079;28;20082;-76
2023/08/27 07:35:54;;;;;;;2.20;1.80;;;;;;;23.49;53.70;100698.72;5054438;28;20492;-76
2023/08/27 07:38:20;;;;;;;2.70;1.80;;;;;;;22.37;55.37;100702.66;5052458;28;20468;-77
2023/08/27 07:40:45;;;;;;;3.38;1.70;;;;;;;21.15;60.27;100698.69;5084102;22;20012;-76
2023/08/27 07:43:11;;;;;;;3.92;1.63;;;;;;;20.38;63.81;100704.72;5054431;28;20537;-76
2023/08/27 07:45:36;;;;;;;1.95;1.70;;;;;;;20.28;64.68;100696.50;5072264;28;20533;-76
2023/08/27 07:48:02;;;;;;;1.83;1.70;;;;;;;21.14;61.38;100693.50;5071120;28;20115;-76
2023/08/27 07:50:27;;;;;;;3.13;1.70;;;;;;;22.22;58.43;100684.34;5072177;28;20722;-76
2023/08/27 07:52:53;;;;;;;2.30;1.70;;;;;;;23.04;54.67;100693.25;5072248;28;20460;-77
2023/08/27 07:55:19;;;;;;;2.10;1.58;;;;;;;23.61;51.59;100691.72;5072289;28;20455;-77
2023/08/27 07:57:44;;;;;;;2.25;1.50;;;;;;;23.97;52.93;100704.34;5072575;28;20028;-77
2023/08/27 08:00:10;;;;;;;1.90;1.50;;;;;;;24.68;49.49;100696.34;5071916;28;20029;-76
2023/08/27 08:02:36;;;;;;;2.72;1.50;;;;;;;24.26;50.77;100706.22;5070834;28;20032;-76
2023/08/27 08:05:01;;;;;;;2.88;1.45;;;;;;;24.77;49.33;100706.69;5072203;28;20032;-76
2023/08/27 08:07:27;;;;;;;2.33;1.70;;;;;;;23.93;50.29;100695.00;5071840;28;20025;-76
2023/08/27 08:09:52;;;;;;;2.05;1.85;;;;;;;22.66;54.63;100688.28;5072294;28;20032;-77
2023/08/27 08:12:18;;;;;;;2.00;1.80;;;;;;;21.53;58.65;100683.91;5064229;28;20036;-76
2023/08/27 08:14:46;;;;;;;2.00;1.85;;;;;;;20.51;62.42;100681.53;5071569;28;20028;-76
2023/08/27 08:17:12;;;;;;;3.30;2.13;;;;;;;19.80;66.09;100682.81;5070237;28;20025;-76
2023/08/27 08:19:37;;;;;;;3.80;2.10;;;;;;;19.30;68.37;100679.41;5070125;28;20646;-77
2023/08/27 08:22:03;;;;;;;2.55;2.10;;;;;;;18.91;70.63;100683.13;5070180;28;20022;-77
2023/08/27 08:24:28;;;;;;;3.13;2.40;;;;;;;18.41;72.46;100683.13;5071271;28;20047;-76
2023/08/27 08:26:54;;;;;;;2.97;2.20;;;;;;;18.14;74.87;100688.50;5070182;28;20055;-76
2023/08/27 08:29:20;;;;;;;3.55;2.00;;;;;;;18.16;75.68;100689.88;5071627;28;20043;-76
2023/08/27 08:31:46;;;;;;;3.33;2.13;;;;;;;18.51;73.40;100685.16;5073019;28;20025;-76
2023/08/27 08:34:11;;;;;;;4.25;2.05;;;;;;;19.13;72.28;100683.09;5071937;28;20025;-76
2023/08/27 08:36:37;;;;;;;2.33;2.00;;;;;;;19.61;69.23;100687.84;5072290;28;20016;-76
2023/08/27 08:39:02;;;;;;;3.90;2.17;;;;;;;19.16;70.46;100690.78;5064558;28;20053;-76
2023/08/27 08:41:28;;;;;;;2.45;1.95;;;;;;;19.41;71.53;100697.53;5094264;28;20059;-77
2023/08/27 08:44:11;;;;;;;3.05;2.35;;;;;;;19.54;68.80;100697.09;5062623;28;20042;-77
2023/08/27 08:46:36;;;;;;;2.40;2.20;;;;;;;19.61;69.76;100701.50;5029494;28;20123;-77
2023/08/27 08:49:02;;;;;;;3.42;2.35;;;;;;;19.35;69.87;100693.13;5035489;28;20036;-76
2023/08/27 08:51:28;;;;;;;3.38;2.38;;;;;;;19.08;70.46;100700.25;5069974;28;20024;-76
2023/08/27 08:53:55;;;;;;;2.63;2.25;;;;;;;18.78;71.43;100692.53;5071704;28;20369;-78
2023/08/27 08:56:23;;;;;;;3.25;2.28;;;;;;;18.85;72.70;100689.59;5068940;28;20063;-76
2023/08/27 08:58:57;;;;;;;4.40;2.40;;;;;;;18.88;71.65;100683.63;5065091;28;20028;-76
2023/08/27 09:01:23;;;;;;;3.17;2.22;;;;;;;19.19;71.17;100678.50;5070823;28;20046;-77
2023/08/27 09:03:49;;;;;;;3.85;2.10;;;;;;;19.56;69.32;100682.38;5070224;28;20033;-77
2023/08/27 09:06:21;;;;;;;3.08;2.15;;;;;;;19.32;69.21;100671.78;5052664;28;20393;-76
2023/08/27 09:08:47;;;;;;;3.20;2.15;;;;;;;19.11;71.13;100689.91;5063097;28;20024;-76
2023/08/27 09:11:12;;;;;;;2.88;2.60;;;;;;;18.91;71.00;100683.94;5070579;28;20039;-76
2023/08/27 09:13:38;;;;;;;3.42;2.30;;;;;;;19.09;71.92;100668.31;5070514;28;20024;-76
2023/08/27 09:16:04;;;;;;;3.33;2.33;;;;;;;20.23;67.56;100677.34;5070283;28;20123;-76
2023/08/27 09:18:30;;;;;;;3.38;2.03;;;;;;;21.62;63.45;100672.16;5064377;28;20115;-76
2023/08/27 09:20:58;;;;;;;4.18;2.17;;;;;;;23.25;56.24;100672.00;5065627;28;20078;-76
2023/08/27 09:23:24;;;;;;;2.60;2.05;;;;;;;24.28;52.37;100670.16;5063307;28;20032;-76
2023/08/27 09:25:51;;;;;;;3.03;2.10;;;;;;;25.08;50.69;100659.41;5052186;28;20491;-76
2023/08/27 09:28:17;;;;;;;2.55;2.05;;;;;;;25.46;47.89;100669.59;5069323;28;20123;-76
2023/08/27 09:30:43;;;;;;;2.78;2.00;;;;;;;25.80;47.07;100668.41;5065836;28;20087;-76
2023/08/27 09:33:08;;;;;;;2.63;1.95;;;;;;;26.02;46.52;100656.66;5065119;28;20102;-77
2023/08/27 09:35:40;;;;;;;3.53;2.15;;;;;;;26.15;46.27;100653.13;5048858;28;20109;-76
2023/08/27 09:38:06;;;;;;;2.28;2.00;;;;;;;24.74;49.68;100657.72;5066889;28;20029;-77
2023/08/27 09:40:31;;;;;;;3.50;2.30;;;;;;;23.27;53.79;100650.56;5063449;28;20036;-77
2023/08/27 09:43:07;;;;;;;3.25;1.98;;;;;;;22.40;57.66;100652.75;5031985;28;20072;-77
2023/08/27 09:45:35;;;;;;;3.22;2.03;;;;;;;22.38;56.88;100652.19;5063046;28;20147;-77
2023/08/27 09:48:02;;;;;;;2.75;2.08;;;;;;;21.62;58.81;100647.50;5066739;28;20472;-76
2023/08/27 09:50:29;;;;;;;3.65;2.40;;;;;;;21.18;61.45;100661.75;5067555;28;20115;-76
2023/08/27 09:53:12;;;;;;;3.42;2.10;;;;;;;22.54;55.49;100656.53;5064140;28;20047;-76
2023/08/27 09:55:40;;;;;;;3.45;2.20;;;;;;;21.89;58.51;100651.81;5050279;28;20047;-76
2023/08/27 09:58:05;;;;;;;3.50;2.20;;;;;;;21.37;58.95;100662.00;5057995;28;20028;-77
2023/08/27 10:00:33;;;;;;;3.33;2.30;;;;;;;20.59;61.03;100653.66;5067977;28;20034;-77
2023/08/27 10:03:00;;;;;;;2.95;2.35;;;;;;;19.87;60.82;100660.72;5066765;28;20074;-77
2023/08/27 10:05:28;;;;;;;3.85;2.20;;;;;;;19.70;63.74;100658.97;5066283;28;20074;-77
2023/08/27 10:08:01;;;;;;;5.00;2.40;;;;;;;19.65;66.27;100648.00;5069047;28;20036;-77
2023/08/27 10:10:29;;;;;;;3.90;2.30;;;;;;;19.61;66.43;100658.66;5066618;28;20037;-78
2023/08/27 10:12:55;;;;;;;4.05;2.60;;;;;;;20.19;64.27;100655.19;5066938;28;20029;-77
2023/08/27 10:15:22;;;;;;;2.58;2.13;;;;;;;20.48;61.37;100654.72;5069370;28;20025;-76
2023/08/27 10:17:47;;;;;;;5.15;2.30;;;;;;;20.17;62.53;100653.78;5050286;28;20051;-77
2023/08/27 10:20:13;;;;;;;4.60;2.50;;;;;;;20.74;60.77;100633.75;5050404;28;20457;-77
2023/08/27 10:22:38;;;;;;;4.22;2.40;;;;;;;22.06;57.07;100636.97;5081558;28;20021;-77
2023/08/27 10:25:06;;;;;;;6.47;2.40;;;;;;;23.60;53.89;100642.56;5050690;28;20037;-77
2023/08/27 10:27:32;;;;;;;4.22;2.10;;;;;;;24.67;48.61;100638.81;5052551;28;20071;-77
2023/08/27 10:29:58;;;;;;;3.22;2.00;;;;;;;24.74;48.55;100638.47;5070973;28;20064;-78
2023/08/27 10:32:26;;;;;;;3.92;2.28;;;;;;;25.05;47.36;100632.50;5033144;28;20032;-77
2023/08/27 10:34:51;;;;;;;3.38;2.03;;;;;;;24.46;50.55;100619.03;5063786;28;20021;-78
2023/08/27 10:37:17;;;;;;;3.75;2.30;;;;;;;24.73;46.35;100631.31;5057473;28;20035;-77
2023/08/27 10:39:42;;;;;;;4.53;2.17;;;;;;;24.31;46.72;100618.13;5082942;28;20410;-77
2023/08/27 10:42:08;;;;;;;4.78;1.90;;;;;;;24.67;47.70;100620.38;5046060;28;20145;-77
2023/08/27 10:44:33;;;;;;;2.88;2.08;;;;;;;24.21;46.82;100621.84;5071403;28;20059;-78
2023/08/27 10:47:09;;;;;;;3.38;1.73;;;;;;;23.38;48.15;100613.66;5067513;28;20045;-77
2023/08/27 10:49:38;;;;;;;2.70;2.00;;;;;;;23.32;49.04;100612.06;5070474;28;20444;-77
2023/08/27 10:52:19;;;;;;;4.32;2.20;;;;;;;22.83;51.68;100617.38;5068962;28;20090;-77
2023/08/27 10:54:46;;;;;;;3.90;1.95;;;;;;;23.30;51.25;100615.09;5065610;28;20048;-78
2023/08/27 10:57:20;;;;;;;3.75;2.00;;;;;;;23.40;48.89;100608.69;5069871;28;20099;-77
2023/08/27 10:59:45;;;;;;;2.78;1.83;;;;;;;23.40;48.71;100611.44;5051235;28;20032;-76
2023/08/27 11:02:11;;;;;;;2.72;2.00;;;;;;;22.97;50.76;100600.25;5067525;28;20039;-76
2023/08/27 11:04:42;;;;;;;6.07;2.10;;;;;;;21.86;53.97;100608.53;5068234;28;20024;-77
2023/08/27 11:07:09;;;;;;;3.35;2.10;;;;;;;22.68;54.00;100606.50;5070254;28;20058;-76
2023/08/27 11:09:36;;;;;;;3.58;1.73;;;;;;;23.44;49.36;100590.53;5068609;28;20095;-76
2023/08/27 11:12:03;;;;;;;3.55;1.92;;;;;;;22.93;50.03;100597.25;5050199;28;20500;-76
2023/08/27 11:14:29;;;;;;;2.10;1.90;;;;;;;22.63;50.17;100585.41;5071040;28;20058;-77
2023/08/27 11:17:03;;;;;;;2.55;2.08;;;;;;;22.77;49.43;100591.06;5067680;28;20062;-76